sensor_id;sensor_type;location;lat;lon;timestamp;pressure;altitude;pressure_sealevel;temperature;humidity
39891;BME280;25564;53.312;9.790;2023-01-27T00:01:08;101698.59;;;4.64;100.00
39891;BME280;25564;53.312;9.790;2023-01-27T00:03:40;101700.31;;;4.62;100.00
39891;BME280;25564;53.312;9.790;2023-01-27T00:06:11;101688.66;;;4.50;100.00
39891;BME280;25564;53.312;9.790;2023-01-27T00:08:43;101694.69;;;4.46;100.00
39891;BME280;25564;53.312;9.790;2023-01-27T00:11:14;101704.31;;;4.46;100.00
39891;BME280;25564;53.312;9.790;2023-01-27T00:14:04;101699.03;;;4.44;100.00
39891;BME280;25564;53.312;9.790;2023-01-27T00:16:36;101700.81;;;4.45;100.00
39891;BME280;25564;53.312;9.790;2023-01-27T00:19:07;101693.84;;;4.47;100.00
39891;BME280;25564;53.312;9.790;2023-01-27T00:21:38;101692.13;;;4.49;100.00
39891;BME280;25564;53.312;9.790;2023-01-27T00:24:29;101697.44;;;4.51;100.00
39891;BME280;25564;53.312;9.790;2023-01-27T00:27:07;101699.22;;;4.52;100.00
39891;BME280;25564;53.312;9.790;2023-01-27T00:29:39;101714.97;;;4.52;100.00
39891;BME280;25564;53.312;9.790;2023-01-27T00:32:11;101695.56;;;4.45;100.00
39891;BME280;25564;53.312;9.790;2023-01-27T00:35:01;101709.75;;;4.53;100.00
39891;BME280;25564;53.312;9.790;2023-01-27T00:37:32;101715.19;;;4.61;100.00
39891;BME280;25564;53.312;9.790;2023-01-27T00:40:04;101718.78;;;4.65;100.00
39891;BME280;25564;53.312;9.790;2023-01-27T00:42:35;101718.84;;;4.68;100.00
39891;BME280;25564;53.312;9.790;2023-01-27T00:45:07;101706.44;;;4.62;100.00
39891;BME280;25564;53.312;9.790;2023-01-27T00:47:57;101712.75;;;4.70;100.00
39891;BME280;25564;53.312;9.790;2023-01-27T00:50:28;101724.31;;;4.77;100.00
39891;BME280;25564;53.312;9.790;2023-01-27T00:52:59;101723.50;;;4.79;100.00
39891;BME280;25564;53.312;9.790;2023-01-27T00:55:32;101706.72;;;4.74;100.00
39891;BME280;25564;53.312;9.790;2023-01-27T00:58:04;101727.09;;;4.84;100.00
39891;BME280;25564;53.312;9.790;2023-01-27T01:00:35;101727.13;;;4.86;100.00
39891;BME280;25564;53.312;9.790;2023-01-27T01:03:06;101726.28;;;4.87;100.00
39891;BME280;25564;53.312;9.790;2023-01-27T01:05:38;101724.50;;;4.86;100.00
39891;BME280;25564;53.312;9.790;2023-01-27T01:08:09;101736.00;;;4.89;100.00
39891;BME280;25564;53.312;9.790;2023-01-27T01:10:41;101732.50;;;4.90;100.00
39891;BME280;25564;53.312;9.790;2023-01-27T01:13:12;101735.16;;;4.92;100.00
39891;BME280;25564;53.312;9.790;2023-01-27T01:15:44;101724.50;;;4.86;100.00
39891;BME280;25564;53.312;9.790;2023-01-27T01:18:15;101715.69;;;4.84;100.00
39891;BME280;25564;53.312;9.790;2023-01-27T01:20:47;101725.38;;;4.85;100.00
39891;BME280;25564;53.312;9.790;2023-01-27T01:23:18;101737.00;;;4.96;100.00
39891;BME280;25564;53.312;9.790;2023-01-27T01:25:54;101747.53;;;4.96;100.00
39891;BME280;25564;53.312;9.790;2023-01-27T01:28:25;101746.69;;;4.97;100.00
39891;BME280;25564;53.312;9.790;2023-01-27T01:31:03;101746.63;;;4.96;100.00
39891;BME280;25564;53.312;9.790;2023-01-27T01:33:35;101751.91;;;4.96;100.00
39891;BME280;25564;53.312;9.790;2023-01-27T01:36:18;101734.16;;;4.85;100.00
39891;BME280;25564;53.312;9.790;2023-01-27T01:38:54;101745.69;;;4.92;100.00
39891;BME280;25564;53.312;9.790;2023-01-27T01:41:27;101748.31;;;4.92;100.00
39891;BME280;25564;53.312;9.790;2023-01-27T01:44:24;101736.94;;;4.93;100.00
39891;BME280;25564;53.312;9.790;2023-01-27T01:46:55;101736.88;;;4.90;100.00
39891;BME280;25564;53.312;9.790;2023-01-27T01:49:34;101730.69;;;4.88;100.00
39891;BME280;25564;53.312;9.790;2023-01-27T01:52:12;101751.88;;;4.94;100.00
39891;BME280;25564;53.312;9.790;2023-01-27T01:54:50;101719.94;;;4.77;100.00
39891;BME280;25564;53.312;9.790;2023-01-27T01:57:26;101755.38;;;4.95;100.00
39891;BME280;25564;53.312;9.790;2023-01-27T02:00:02;101750.13;;;4.95;100.00
39891;BME280;25564;53.312;9.790;2023-01-27T02:02:34;101745.63;;;4.89;100.00
39891;BME280;25564;53.312;9.790;2023-01-27T02:05:42;101745.59;;;4.87;100.00
39891;BME280;25564;53.312;9.790;2023-01-27T02:08:14;101755.44;;;4.98;100.00
39891;BME280;25564;53.312;9.790;2023-01-27T02:10:46;101763.38;;;4.99;100.00
39891;BME280;25564;53.312;9.790;2023-01-27T02:13:18;101766.91;;;5.00;100.00
39891;BME280;25564;53.312;9.790;2023-01-27T02:15:51;101756.31;;;4.97;100.00
39891;BME280;25564;53.312;9.790;2023-01-27T02:18:25;101748.44;;;4.98;100.00
39891;BME280;25564;53.312;9.790;2023-01-27T02:20:57;101766.94;;;5.01;100.00
39891;BME280;25564;53.312;9.790;2023-01-27T02:23:47;101758.06;;;4.96;100.00
39891;BME280;25564;53.312;9.790;2023-01-27T02:26:32;101759.91;;;5.00;100.00
39891;BME280;25564;53.312;9.790;2023-01-27T02:29:11;101767.75;;;4.99;100.00
39891;BME280;25564;53.312;9.790;2023-01-27T02:31:42;101754.28;;;4.85;100.00
39891;BME280;25564;53.312;9.790;2023-01-27T02:34:16;101766.88;;;4.98;100.00
39891;BME280;25564;53.312;9.790;2023-01-27T02:36:57;101766.00;;;4.99;100.00
39891;BME280;25564;53.312;9.790;2023-01-27T02:39:34;101765.94;;;4.96;100.00
39891;BME280;25564;53.312;9.790;2023-01-27T02:42:09;101770.28;;;4.94;100.00
39891;BME280;25564;53.312;9.790;2023-01-27T02:44:41;101778.94;;;4.90;100.00
39891;BME280;25564;53.312;9.790;2023-01-27T02:47:12;101766.50;;;4.83;100.00
39891;BME280;25564;53.312;9.790;2023-01-27T02:49:43;101779.69;;;4.84;100.00
39891;BME280;25564;53.312;9.790;2023-01-27T02:52:15;101778.81;;;4.84;100.00
39891;BME280;25564;53.312;9.790;2023-01-27T02:54:46;101786.63;;;4.81;100.00
39891;BME280;25564;53.312;9.790;2023-01-27T02:57:17;101771.63;;;4.77;100.00
39891;BME280;25564;53.312;9.790;2023-01-27T02:59:49;101789.34;;;4.84;100.00
39891;BME280;25564;53.312;9.790;2023-01-27T03:02:20;101782.44;;;4.89;100.00
39891;BME280;25564;53.312;9.790;2023-01-27T03:04:53;101788.59;;;4.89;100.00
39891;BME280;25564;53.312;9.790;2023-01-27T03:07:25;101794.81;;;4.93;100.00
39891;BME280;25564;53.312;9.790;2023-01-27T03:09:56;101799.22;;;4.94;100.00
39891;BME280;25564;53.312;9.790;2023-01-27T03:12:28;101788.72;;;4.96;100.00
39891;BME280;25564;53.312;9.790;2023-01-27T03:14:59;101793.03;;;4.92;100.00
39891;BME280;25564;53.312;9.790;2023-01-27T03:17:49;101788.72;;;4.96;100.00
39891;BME280;25564;53.312;9.790;2023-01-27T03:20:39;101785.81;;;4.83;100.00
39891;BME280;25564;53.312;9.790;2023-01-27T03:23:12;101780.56;;;4.83;100.00
39891;BME280;25564;53.312;9.790;2023-01-27T03:25:46;101802.72;;;4.95;100.00
39891;BME280;25564;53.312;9.790;2023-01-27T03:28:17;101794.59;;;4.84;100.00
39891;BME280;25564;53.312;9.790;2023-01-27T03:30:49;101815.88;;;4.95;100.00
39891;BME280;25564;53.312;9.790;2023-01-27T03:33:20;101810.47;;;4.88;100.00
39891;BME280;25564;53.312;9.790;2023-01-27T03:35:51;101817.63;;;4.94;100.00
39891;BME280;25564;53.312;9.790;2023-01-27T03:38:41;101815.63;;;4.84;100.00
39891;BME280;25564;53.312;9.790;2023-01-27T03:41:31;101818.34;;;4.87;100.00
39891;BME280;25564;53.312;9.790;2023-01-27T03:44:21;101813.72;;;4.77;100.00
39891;BME280;25564;53.312;9.790;2023-01-27T03:47:11;101816.34;;;4.77;100.00
39891;BME280;25564;53.312;9.790;2023-01-27T03:49:43;101833.66;;;4.69;100.00
39891;BME280;25564;53.312;9.790;2023-01-27T03:52:14;101836.16;;;4.63;100.00
39891;BME280;25564;53.312;9.790;2023-01-27T03:54:45;101830.75;;;4.56;100.00
39891;BME280;25564;53.312;9.790;2023-01-27T03:57:16;101835.84;;;4.50;100.00
39891;BME280;25564;53.312;9.790;2023-01-27T03:59:48;101838.34;;;4.46;100.00
39891;BME280;25564;53.312;9.790;2023-01-27T04:02:19;101843.50;;;4.41;100.00
39891;BME280;25564;53.312;9.790;2023-01-27T04:05:09;101824.59;;;4.21;100.00
39891;BME280;25564;53.312;9.790;2023-01-27T04:07:59;101849.28;;;4.28;100.00
39891;BME280;25564;53.312;9.790;2023-01-27T04:10:30;101850.06;;;4.24;100.00
39891;BME280;25564;53.312;9.790;2023-01-27T04:13:02;101848.28;;;4.23;100.00
39891;BME280;25564;53.312;9.790;2023-01-27T04:15:33;101856.13;;;4.21;100.00
39891;BME280;25564;53.312;9.790;2023-01-27T04:18:04;101849.94;;;4.19;100.00
39891;BME280;25564;53.312;9.790;2023-01-27T04:20:36;101846.50;;;4.22;100.00
39891;BME280;25564;53.312;9.790;2023-01-27T04:23:07;101857.00;;;4.22;100.00
39891;BME280;25564;53.312;9.790;2023-01-27T04:25:38;101853.53;;;4.23;100.00
39891;BME280;25564;53.312;9.790;2023-01-27T04:28:10;101842.84;;;4.15;100.00
39891;BME280;25564;53.312;9.790;2023-01-27T04:30:41;101856.19;;;4.24;100.00
39891;BME280;25564;53.312;9.790;2023-01-27T04:33:12;101860.59;;;4.25;100.00
39891;BME280;25564;53.312;9.790;2023-01-27T04:35:45;101855.34;;;4.25;100.00
39891;BME280;25564;53.312;9.790;2023-01-27T04:38:16;101856.97;;;4.20;100.00
39891;BME280;25564;53.312;9.790;2023-01-27T04:40:48;101854.81;;;4.04;100.00
39891;BME280;25564;53.312;9.790;2023-01-27T04:43:19;101854.38;;;3.89;100.00
39891;BME280;25564;53.312;9.790;2023-01-27T04:45:50;101852.44;;;3.82;100.00
39891;BME280;25564;53.312;9.790;2023-01-27T04:48:21;101872.81;;;3.90;100.00
39891;BME280;25564;53.312;9.790;2023-01-27T04:50:53;101864.75;;;3.84;100.00
39891;BME280;25564;53.312;9.790;2023-01-27T04:53:24;101879.03;;;3.94;100.00
39891;BME280;25564;53.312;9.790;2023-01-27T04:56:01;101879.84;;;3.91;100.00
39891;BME280;25564;53.312;9.790;2023-01-27T04:58:33;101871.78;;;3.85;100.00
39891;BME280;25564;53.312;9.790;2023-01-27T05:01:04;101877.22;;;3.91;100.00
39891;BME280;25564;53.312;9.790;2023-01-27T05:03:36;101876.28;;;3.89;100.00
39891;BME280;25564;53.312;9.790;2023-01-27T05:06:09;101887.59;;;3.87;100.00
39891;BME280;25564;53.312;9.790;2023-01-27T05:08:41;101879.66;;;3.85;100.00
39891;BME280;25564;53.312;9.790;2023-01-27T05:11:12;101896.34;;;3.87;100.00
39891;BME280;25564;53.312;9.790;2023-01-27T05:13:44;101885.00;;;3.88;100.00
39891;BME280;25564;53.312;9.790;2023-01-27T05:16:18;101892.03;;;3.89;100.00
39891;BME280;25564;53.312;9.790;2023-01-27T05:18:50;101896.38;;;3.89;100.00
39891;BME280;25564;53.312;9.790;2023-01-27T05:21:24;101899.81;;;3.86;100.00
39891;BME280;25564;53.312;9.790;2023-01-27T05:23:58;101906.81;;;3.86;100.00
39891;BME280;25564;53.312;9.790;2023-01-27T05:26:29;101889.06;;;3.77;100.00
39891;BME280;25564;53.312;9.790;2023-01-27T05:29:01;101918.16;;;3.85;100.00
39891;BME280;25564;53.312;9.790;2023-01-27T05:31:32;101917.31;;;3.86;100.00
39891;BME280;25564;53.312;9.790;2023-01-27T05:34:03;101912.72;;;3.79;100.00
39891;BME280;25564;53.312;9.790;2023-01-27T05:36:35;101891.69;;;3.77;100.00
39891;BME280;25564;53.312;9.790;2023-01-27T05:39:09;101915.66;;;3.89;100.00
39891;BME280;25564;53.312;9.790;2023-01-27T05:41:41;101915.72;;;3.91;100.00
39891;BME280;25564;53.312;9.790;2023-01-27T05:44:12;101903.47;;;3.91;100.00
39891;BME280;25564;53.312;9.790;2023-01-27T05:46:43;101898.88;;;3.84;100.00
39891;BME280;25564;53.312;9.790;2023-01-27T05:49:15;101915.94;;;3.99;100.00
39891;BME280;25564;53.312;9.790;2023-01-27T05:51:46;101917.75;;;4.01;100.00
39891;BME280;25564;53.312;9.790;2023-01-27T05:54:18;101896.56;;;3.95;100.00
39891;BME280;25564;53.312;9.790;2023-01-27T05:56:49;101911.69;;;4.04;100.00
39891;BME280;25564;53.312;9.790;2023-01-27T05:59:20;101908.97;;;4.01;100.00
39891;BME280;25564;53.312;9.790;2023-01-27T06:01:51;101907.19;;;4.00;100.00
39891;BME280;25564;53.312;9.790;2023-01-27T06:04:23;101897.38;;;3.92;100.00
39891;BME280;25564;53.312;9.790;2023-01-27T06:06:54;101910.38;;;3.88;100.00
39891;BME280;25564;53.312;9.790;2023-01-27T06:09:25;101916.28;;;3.81;100.00
39891;BME280;25564;53.312;9.790;2023-01-27T06:11:57;101916.94;;;3.74;100.00
39891;BME280;25564;53.312;9.790;2023-01-27T06:14:28;101896.28;;;3.56;100.00
39891;BME280;25564;53.312;9.790;2023-01-27T06:16:59;101895.13;;;3.46;100.00
39891;BME280;25564;53.312;9.790;2023-01-27T06:19:31;101924.47;;;3.61;100.00
39891;BME280;25564;53.312;9.790;2023-01-27T06:22:02;101915.56;;;3.56;100.00
39891;BME280;25564;53.312;9.790;2023-01-27T06:24:33;101925.16;;;3.56;100.00
39891;BME280;25564;53.312;9.790;2023-01-27T06:27:05;101904.75;;;3.46;100.00
39891;BME280;25564;53.312;9.790;2023-01-27T06:29:36;101935.66;;;3.56;100.00
39891;BME280;25564;53.312;9.790;2023-01-27T06:32:07;101927.78;;;3.56;100.00
39891;BME280;25564;53.312;9.790;2023-01-27T06:34:39;101944.56;;;3.61;100.00
39891;BME280;25564;53.312;9.790;2023-01-27T06:37:10;101942.75;;;3.58;100.00
39891;BME280;25564;53.312;9.790;2023-01-27T06:39:41;101919.59;;;3.45;100.00
39891;BME280;25564;53.312;9.790;2023-01-27T06:42:12;101954.03;;;3.56;100.00
39891;BME280;25564;53.312;9.790;2023-01-27T06:44:44;101966.44;;;3.61;100.00
39891;BME280;25564;53.312;9.790;2023-01-27T06:47:15;101976.00;;;3.59;100.00
39891;BME280;25564;53.312;9.790;2023-01-27T06:49:46;101969.78;;;3.56;100.00
39891;BME280;25564;53.312;9.790;2023-01-27T06:52:18;101976.91;;;3.60;100.00
39891;BME280;25564;53.312;9.790;2023-01-27T06:54:49;101976.91;;;3.60;100.00
39891;BME280;25564;53.312;9.790;2023-01-27T06:57:21;101970.56;;;3.53;100.00
39891;BME280;25564;53.312;9.790;2023-01-27T06:59:52;101992.66;;;3.60;100.00
39891;BME280;25564;53.312;9.790;2023-01-27T07:02:23;101991.81;;;3.61;100.00
39891;BME280;25564;53.312;9.790;2023-01-27T07:04:54;101980.19;;;3.53;100.00
39891;BME280;25564;53.312;9.790;2023-01-27T07:07:26;101981.13;;;3.55;100.00
39891;BME280;25564;53.312;9.790;2023-01-27T07:09:57;101998.88;;;3.64;100.00
39891;BME280;25564;53.312;9.790;2023-01-27T07:12:29;101998.88;;;3.64;100.00
39891;BME280;25564;53.312;9.790;2023-01-27T07:15:00;102008.63;;;3.68;100.00
39891;BME280;25564;53.312;9.790;2023-01-27T07:17:31;101989.88;;;3.55;100.00
39891;BME280;25564;53.312;9.790;2023-01-27T07:20:04;101996.03;;;3.56;100.00
39891;BME280;25564;53.312;9.790;2023-01-27T07:22:36;102023.41;;;3.64;100.00
39891;BME280;25564;53.312;9.790;2023-01-27T07:25:07;102024.16;;;3.60;100.00
39891;BME280;25564;53.312;9.790;2023-01-27T07:27:40;102014.16;;;3.48;100.00
39891;BME280;25564;53.312;9.790;2023-01-27T07:30:11;102035.34;;;3.54;100.00
39891;BME280;25564;53.312;9.790;2023-01-27T07:32:43;102048.41;;;3.53;100.00
39891;BME280;25564;53.312;9.790;2023-01-27T07:35:15;102042.19;;;3.49;100.00
39891;BME280;25564;53.312;9.790;2023-01-27T07:37:47;102045.53;;;3.45;100.00
39891;BME280;25564;53.312;9.790;2023-01-27T07:40:18;102047.03;;;3.37;100.00
39891;BME280;25564;53.312;9.790;2023-01-27T07:42:50;102062.97;;;3.43;100.00
39891;BME280;25564;53.312;9.790;2023-01-27T07:45:21;102037.16;;;3.30;100.00
39891;BME280;25564;53.312;9.790;2023-01-27T07:47:52;102047.75;;;3.33;100.00
39891;BME280;25564;53.312;9.790;2023-01-27T07:50:24;102064.66;;;3.41;100.00
39891;BME280;25564;53.312;9.790;2023-01-27T07:53:00;102060.19;;;3.39;100.00
39891;BME280;25564;53.312;9.790;2023-01-27T07:55:32;102067.13;;;3.37;100.00
39891;BME280;25564;53.312;9.790;2023-01-27T07:58:04;102061.81;;;3.35;100.00
39891;BME280;25564;53.312;9.790;2023-01-27T08:00:37;102044.72;;;3.21;100.00
39891;BME280;25564;53.312;9.790;2023-01-27T08:03:20;102059.84;;;3.28;100.00
39891;BME280;25564;53.312;9.790;2023-01-27T08:05:52;102065.13;;;3.29;100.00
39891;BME280;25564;53.312;9.790;2023-01-27T08:08:23;102078.25;;;3.29;100.00
39891;BME280;25564;53.312;9.790;2023-01-27T08:10:58;102054.22;;;3.17;100.00
39891;BME280;25564;53.312;9.790;2023-01-27T08:13:30;102059.19;;;3.08;100.00
39891;BME280;25564;53.312;9.790;2023-01-27T08:16:03;102070.28;;;3.26;100.00
39891;BME280;25564;53.312;9.790;2023-01-27T08:18:39;102068.59;;;3.28;100.00
39891;BME280;25564;53.312;9.790;2023-01-27T08:21:11;102076.78;;;3.38;100.00
39891;BME280;25564;53.312;9.790;2023-01-27T08:23:42;102086.44;;;3.39;100.00
39891;BME280;25564;53.312;9.790;2023-01-27T08:26:14;102091.47;;;3.33;100.00
39891;BME280;25564;53.312;9.790;2023-01-27T08:28:45;102101.84;;;3.29;100.00
39891;BME280;25564;53.312;9.790;2023-01-27T08:31:17;102091.25;;;3.26;100.00
39891;BME280;25564;53.312;9.790;2023-01-27T08:33:51;102079.81;;;3.24;100.00
39891;BME280;25564;53.312;9.790;2023-01-27T08:36:23;102083.28;;;3.23;100.00
39891;BME280;25564;53.312;9.790;2023-01-27T08:38:55;102074.53;;;3.23;100.00
39891;BME280;25564;53.312;9.790;2023-01-27T08:41:26;102069.91;;;3.16;100.00
39891;BME280;25564;53.312;9.790;2023-01-27T08:43:58;102086.16;;;3.31;100.00
39891;BME280;25564;53.312;9.790;2023-01-27T08:46:29;102084.53;;;3.35;100.00
39891;BME280;25564;53.312;9.790;2023-01-27T08:49:01;102095.09;;;3.36;100.00
39891;BME280;25564;53.312;9.790;2023-01-27T08:51:33;102094.19;;;3.36;100.00
39891;BME280;25564;53.312;9.790;2023-01-27T08:54:05;102079.97;;;3.29;100.00
39891;BME280;25564;53.312;9.790;2023-01-27T08:56:37;102088.00;;;3.34;100.00
39891;BME280;25564;53.312;9.790;2023-01-27T08:59:08;102105.84;;;3.44;100.00
39891;BME280;25564;53.312;9.790;2023-01-27T09:01:39;102101.59;;;3.47;100.00
39891;BME280;25564;53.312;9.790;2023-01-27T09:04:12;102104.25;;;3.49;100.00
39891;BME280;25564;53.312;9.790;2023-01-27T09:06:43;102106.16;;;3.53;100.00
39891;BME280;25564;53.312;9.790;2023-01-27T09:09:15;102099.13;;;3.52;100.00
39891;BME280;25564;53.312;9.790;2023-01-27T09:11:46;102100.50;;;3.41;100.00
39891;BME280;25564;53.312;9.790;2023-01-27T09:14:18;102102.38;;;3.45;100.00
39891;BME280;25564;53.312;9.790;2023-01-27T09:16:50;102112.88;;;3.45;100.00
39891;BME280;25564;53.312;9.790;2023-01-27T09:19:21;102121.59;;;3.44;100.00
39891;BME280;25564;53.312;9.790;2023-01-27T09:21:52;102118.03;;;3.42;100.00
39891;BME280;25564;53.312;9.790;2023-01-27T09:24:24;102116.13;;;3.38;100.00
39891;BME280;25564;53.312;9.790;2023-01-27T09:26:55;102117.91;;;3.39;100.00
39891;BME280;25564;53.312;9.790;2023-01-27T09:29:27;102123.16;;;3.39;100.00
39891;BME280;25564;53.312;9.790;2023-01-27T09:31:59;102103.63;;;3.31;100.00
39891;BME280;25564;53.312;9.790;2023-01-27T09:34:30;102125.06;;;3.43;100.00
39891;BME280;25564;53.312;9.790;2023-01-27T09:37:06;102123.38;;;3.45;100.00
39891;BME280;25564;53.312;9.790;2023-01-27T09:39:50;102121.78;;;3.50;100.00
39891;BME280;25564;53.312;9.790;2023-01-27T09:42:38;102109.50;;;3.49;100.00
39891;BME280;25564;53.312;9.790;2023-01-27T09:45:30;102116.00;;;3.60;100.00
39891;BME280;25564;53.312;9.790;2023-01-27T09:50:45;102126.81;;;3.69;100.00
39891;BME280;25564;53.312;9.790;2023-01-27T09:56:07;102128.59;;;3.70;100.00
39891;BME280;25564;53.312;9.790;2023-01-27T10:02:09;102117.16;;;3.68;100.00
39891;BME280;25564;53.312;9.790;2023-01-27T10:13:22;102132.44;;;3.54;100.00
39891;BME280;25564;53.312;9.790;2023-01-27T10:19:04;102120.13;;;3.52;100.00
39891;BME280;25564;53.312;9.790;2023-01-27T10:21:59;102120.31;;;3.58;100.00
39891;BME280;25564;53.312;9.790;2023-01-27T10:27:35;102107.00;;;3.52;100.00
39891;BME280;25564;53.312;9.790;2023-01-27T10:30:20;102112.66;;;3.64;100.00
39891;BME280;25564;53.312;9.790;2023-01-27T10:35:37;102089.66;;;3.57;100.00
39891;BME280;25564;53.312;9.790;2023-01-27T10:38:18;102124.28;;;3.72;100.00
39891;BME280;25564;53.312;9.790;2023-01-27T10:41:05;102113.53;;;3.65;100.00
39891;BME280;25564;53.312;9.790;2023-01-27T10:49:52;102128.59;;;3.70;100.00
39891;BME280;25564;53.312;9.790;2023-01-27T10:52:36;102123.22;;;3.92;100.00
39891;BME280;25564;53.312;9.790;2023-01-27T10:55:19;102115.06;;;4.12;100.00
39891;BME280;25564;53.312;9.790;2023-01-27T10:58:00;102106.16;;;4.37;100.00
39891;BME280;25564;53.312;9.790;2023-01-27T11:00:43;102085.91;;;4.33;100.00
39891;BME280;25564;53.312;9.790;2023-01-27T11:03:39;102096.78;;;4.45;100.00
39891;BME280;25564;53.312;9.790;2023-01-27T11:06:16;102117.13;;;4.52;100.00
39891;BME280;25564;53.312;9.790;2023-01-27T11:09:03;102108.22;;;4.47;100.00
39891;BME280;25564;53.312;9.790;2023-01-27T11:11:37;102116.69;;;4.37;100.00
39891;BME280;25564;53.312;9.790;2023-01-27T11:14:28;102113.81;;;4.29;100.00
39891;BME280;25564;53.312;9.790;2023-01-27T11:17:13;102106.63;;;4.23;100.00
39891;BME280;25564;53.312;9.790;2023-01-27T11:20:08;102113.63;;;4.23;100.00
39891;BME280;25564;53.312;9.790;2023-01-27T11:22:52;102123.09;;;4.18;100.00
39891;BME280;25564;53.312;9.790;2023-01-27T11:25:28;102115.16;;;4.15;100.00
39891;BME280;25564;53.312;9.790;2023-01-27T11:28:13;102121.16;;;4.11;100.00
39891;BME280;25564;53.312;9.790;2023-01-27T11:31:00;102121.13;;;4.09;100.00
39891;BME280;25564;53.312;9.790;2023-01-27T11:36:42;102109.53;;;4.03;100.00
39891;BME280;25564;53.312;9.790;2023-01-27T11:39:14;102092.72;;;3.98;100.00
39891;BME280;25564;53.312;9.790;2023-01-27T11:41:53;102111.31;;;4.04;100.00
39891;BME280;25564;53.312;9.790;2023-01-27T11:44:31;102128.84;;;4.05;100.00
39891;BME280;25564;53.312;9.790;2023-01-27T11:47:05;102097.78;;;3.91;100.00
39891;BME280;25564;53.312;9.790;2023-01-27T11:49:41;102113.53;;;3.91;100.00
39891;BME280;25564;53.312;9.790;2023-01-27T11:52:17;102076.84;;;3.66;100.00
39891;BME280;25564;53.312;9.790;2023-01-27T11:55:02;102113.09;;;3.78;100.00
39891;BME280;25564;53.312;9.790;2023-01-27T11:57:35;102113.00;;;3.75;100.00
39891;BME280;25564;53.312;9.790;2023-01-27T12:00:26;102114.84;;;3.77;100.00
39891;BME280;25564;53.312;9.790;2023-01-27T12:03:15;102110.38;;;3.75;100.00
39891;BME280;25564;53.312;9.790;2023-01-27T12:05:53;102109.38;;;3.71;100.00
39891;BME280;25564;53.312;9.790;2023-01-27T12:08:37;102047.06;;;3.39;100.00
39891;BME280;25564;53.312;9.790;2023-01-27T12:11:25;102106.75;;;3.71;100.00
39891;BME280;25564;53.312;9.790;2023-01-27T12:14:02;102107.69;;;3.73;100.00
39891;BME280;25564;53.312;9.790;2023-01-27T12:16:49;102110.31;;;3.73;100.00
39891;BME280;25564;53.312;9.790;2023-01-27T12:19:27;102103.38;;;3.75;100.00
39891;BME280;25564;53.312;9.790;2023-01-27T12:22:08;102089.81;;;3.61;100.00
39891;BME280;25564;53.312;9.790;2023-01-27T12:24:45;102105.97;;;3.74;100.00
39891;BME280;25564;53.312;9.790;2023-01-27T12:27:25;102086.41;;;3.64;100.00
39891;BME280;25564;53.312;9.790;2023-01-27T12:30:02;102098.03;;;3.72;100.00
39891;BME280;25564;53.312;9.790;2023-01-27T12:32:39;102089.91;;;3.65;100.00
39891;BME280;25564;53.312;9.790;2023-01-27T12:35:40;102098.78;;;3.68;100.00
39891;BME280;25564;53.312;9.790;2023-01-27T12:38:23;102108.53;;;3.72;100.00
39891;BME280;25564;53.312;9.790;2023-01-27T12:41:02;102090.13;;;3.71;100.00
39891;BME280;25564;53.312;9.790;2023-01-27T12:43:56;102101.47;;;3.70;100.00
39891;BME280;25564;53.312;9.790;2023-01-27T12:46:30;102089.16;;;3.69;100.00
39891;BME280;25564;53.312;9.790;2023-01-27T12:49:10;102101.41;;;3.68;100.00
39891;BME280;25564;53.312;9.790;2023-01-27T12:51:50;102094.38;;;3.67;100.00
39891;BME280;25564;53.312;9.790;2023-01-27T12:54:28;102097.94;;;3.69;100.00
39891;BME280;25564;53.312;9.790;2023-01-27T12:57:11;102089.22;;;3.70;100.00
39891;BME280;25564;53.312;9.790;2023-01-27T12:59:48;102090.31;;;3.77;100.00
39891;BME280;25564;53.312;9.790;2023-01-27T13:02:30;102090.56;;;3.84;100.00
39891;BME280;25564;53.312;9.790;2023-01-27T13:05:04;102098.72;;;3.93;100.00
39891;BME280;25564;53.312;9.790;2023-01-27T13:07:49;102076.28;;;3.76;100.00
39891;BME280;25564;53.312;9.790;2023-01-27T13:10:24;102089.91;;;3.91;100.00
39891;BME280;25564;53.312;9.790;2023-01-27T13:12:59;102075.66;;;3.83;100.00
39891;BME280;25564;53.312;9.790;2023-01-27T13:15:31;102097.75;;;3.90;100.00
39891;BME280;25564;53.312;9.790;2023-01-27T13:18:18;102092.34;;;3.85;100.00
39891;BME280;25564;53.312;9.790;2023-01-27T13:21:02;102080.81;;;3.80;100.00
39891;BME280;25564;53.312;9.790;2023-01-27T13:23:38;102091.41;;;3.83;100.00
39891;BME280;25564;53.312;9.790;2023-01-27T13:26:21;102090.81;;;3.92;100.00
39891;BME280;25564;53.312;9.790;2023-01-27T13:28:56;102100.41;;;3.91;100.00
39891;BME280;25564;53.312;9.790;2023-01-27T13:34:40;102093.19;;;3.84;100.00
39891;BME280;25564;53.312;9.790;2023-01-27T13:37:25;102069.13;;;3.71;100.00
39891;BME280;25564;53.312;9.790;2023-01-27T13:40:50;102094.88;;;3.82;100.00
39891;BME280;25564;53.312;9.790;2023-01-27T13:43:06;102096.56;;;3.80;100.00
39891;BME280;25564;53.312;9.790;2023-01-27T13:45:43;102094.78;;;3.79;100.00
39891;BME280;25564;53.312;9.790;2023-01-27T13:48:28;102092.78;;;3.72;100.00
39891;BME280;25564;53.312;9.790;2023-01-27T13:51:08;102099.94;;;3.76;100.00
39891;BME280;25564;53.312;9.790;2023-01-27T13:53:40;102095.50;;;3.75;100.00
39891;BME280;25564;53.312;9.790;2023-01-27T14:00:00;102097.44;;;3.81;100.00
39891;BME280;25564;53.312;9.790;2023-01-27T14:14:14;102093.19;;;3.84;100.00
39891;BME280;25564;53.312;9.790;2023-01-27T14:23:07;102098.63;;;3.90;100.00
39891;BME280;25564;53.312;9.790;2023-01-27T14:28:53;102048.97;;;3.70;100.00
39891;BME280;25564;53.312;9.790;2023-01-27T14:36:57;102107.84;;;3.78;100.00
39891;BME280;25564;53.312;9.790;2023-01-27T14:42:37;102079.31;;;3.61;100.00
39891;BME280;25564;53.312;9.790;2023-01-27T14:45:21;102086.44;;;3.66;100.00